createdAt,value
2022-09-12T00:00:52.504Z,20.50
2022-09-12T00:03:19.321Z,20.60
2022-09-12T00:05:47.908Z,20.40
2022-09-12T00:08:14.948Z,20.40
2022-09-12T00:10:44.083Z,20.60
2022-09-12T00:13:11.994Z,20.60
2022-09-12T00:15:43.411Z,20.60
2022-09-12T00:18:15.144Z,20.70
2022-09-12T00:20:47.025Z,20.60
2022-09-12T00:23:14.817Z,20.60
2022-09-12T00:25:43.911Z,20.70
2022-09-12T00:28:11.851Z,20.60
2022-09-12T00:30:43.320Z,20.60
2022-09-12T00:33:11.348Z,20.50
2022-09-12T00:35:47.704Z,20.70
2022-09-12T00:38:15.944Z,20.40
2022-09-12T00:40:43.749Z,20.10
2022-09-12T00:43:40.879Z,20.30
2022-09-12T00:46:43.196Z,20.20
2022-09-12T00:49:55.878Z,20.10
2022-09-12T00:52:39.564Z,20.00
2022-09-12T00:55:17.171Z,20.00
2022-09-12T00:57:50.767Z,20.10
2022-09-12T01:00:23.021Z,19.90
2022-09-12T01:02:56.269Z,19.50
2022-09-12T01:05:24.876Z,19.50
2022-09-12T01:07:53.059Z,19.40
2022-09-12T01:10:20.482Z,19.70
2022-09-12T01:12:48.423Z,19.20
2022-09-12T01:15:15.596Z,19.20
2022-09-12T01:18:12.143Z,18.90
2022-09-12T01:20:49.348Z,19.00
2022-09-12T01:24:14.593Z,18.80
2022-09-12T01:30:46.197Z,18.60
2022-09-12T01:33:37.194Z,18.70
2022-09-12T01:36:17.758Z,19.00
2022-09-12T01:38:53.280Z,18.70
2022-09-12T01:41:43.552Z,18.80
2022-09-12T01:44:30.875Z,19.20
2022-09-12T01:47:33.652Z,19.00
2022-09-12T01:51:03.788Z,18.90
2022-09-12T01:54:04.046Z,18.90
2022-09-12T01:57:03.312Z,18.90
2022-09-12T01:59:39.655Z,19.00
2022-09-12T02:02:14.801Z,19.10
2022-09-12T02:05:10.377Z,19.00
2022-09-12T02:07:44.267Z,18.90
2022-09-12T02:10:20.598Z,18.80
2022-09-12T02:13:18.558Z,18.80
2022-09-12T02:16:00.448Z,18.80
2022-09-12T02:18:29.960Z,18.70
2022-09-12T02:20:57.445Z,18.70
2022-09-12T02:23:29.332Z,18.80
2022-09-12T02:26:02.752Z,18.70
2022-09-12T02:28:38.666Z,18.50
2022-09-12T02:31:27.646Z,18.20
2022-09-12T02:34:19.911Z,18.10
2022-09-12T02:37:13.014Z,17.90
2022-09-12T02:39:44.513Z,17.80
2022-09-12T02:42:12.603Z,17.90
2022-09-12T02:48:29.125Z,18.40
2022-09-12T02:50:56.694Z,18.60
2022-09-12T02:53:25.562Z,18.70
2022-09-12T02:55:52.837Z,18.60
2022-09-12T02:58:25.084Z,18.80
2022-09-12T03:01:22.464Z,18.50
2022-09-12T03:04:24.488Z,18.40
2022-09-12T03:07:12.546Z,18.50
2022-09-12T03:10:08.990Z,18.60
2022-09-12T03:13:14.116Z,18.70
2022-09-12T03:16:21.389Z,18.60
2022-09-12T03:19:03.143Z,18.40
2022-09-12T03:22:04.233Z,18.30
2022-09-12T03:24:48.467Z,18.10
2022-09-12T03:27:49.535Z,18.10
2022-09-12T03:30:16.447Z,18.10
2022-09-12T03:32:47.174Z,18.10
2022-09-12T03:35:18.780Z,18.20
2022-09-12T03:37:49.474Z,18.10
2022-09-12T03:40:16.704Z,18.00
2022-09-12T03:42:43.501Z,18.10
2022-09-12T03:45:11.166Z,18.10
2022-09-12T03:47:38.116Z,18.40
2022-09-12T03:50:06.438Z,18.30
2022-09-12T03:52:33.506Z,18.30
2022-09-12T03:55:00.250Z,18.50
2022-09-12T03:57:27.028Z,18.10
2022-09-12T03:59:53.972Z,18.00
2022-09-12T04:02:21.174Z,17.30
2022-09-12T04:04:48.759Z,17.00
2022-09-12T04:07:16.626Z,17.10
2022-09-12T04:09:43.801Z,17.00
2022-09-12T04:12:10.910Z,17.20
2022-09-12T04:14:38.450Z,17.50
2022-09-12T04:17:05.454Z,17.70
2022-09-12T04:19:32.304Z,17.30
2022-09-12T04:21:59.090Z,17.30
2022-09-12T04:24:25.898Z,17.50
2022-09-12T04:26:52.670Z,17.40
2022-09-12T04:29:19.408Z,17.60
2022-09-12T04:31:46.248Z,17.50
2022-09-12T04:34:13.056Z,17.70
2022-09-12T04:36:39.812Z,17.40
2022-09-12T04:39:07.691Z,17.20
2022-09-12T04:41:37.799Z,17.30
2022-09-12T04:44:16.035Z,17.40
2022-09-12T04:46:47.469Z,17.50
2022-09-12T04:49:19.296Z,17.50
2022-09-12T04:51:46.557Z,17.60
2022-09-12T04:54:17.976Z,17.40
2022-09-12T04:56:48.861Z,17.50
2022-09-12T04:59:18.241Z,17.70
2022-09-12T05:01:45.142Z,17.30
2022-09-12T05:04:15.469Z,17.10
2022-09-12T05:06:42.938Z,17.40
2022-09-12T05:09:12.600Z,17.50
2022-09-12T05:14:30.884Z,17.10
2022-09-12T05:17:00.675Z,17.00
2022-09-12T05:19:29.152Z,16.90
2022-09-12T05:21:56.264Z,17.00
2022-09-12T05:24:23.058Z,17.00
2022-09-12T05:26:49.971Z,17.20
2022-09-12T05:29:16.688Z,17.00
2022-09-12T05:31:43.417Z,16.80
2022-09-12T05:34:10.466Z,16.90
2022-09-12T05:36:38.484Z,16.60
2022-09-12T05:39:05.700Z,16.30
2022-09-12T05:41:34.283Z,16.70
2022-09-12T05:44:06.777Z,17.10
2022-09-12T05:46:40.774Z,17.50
2022-09-12T05:49:11.195Z,17.80
2022-09-12T05:51:42.382Z,17.70
2022-09-12T05:54:13.911Z,18.10
2022-09-12T05:56:42.919Z,18.10
2022-09-12T05:59:19.712Z,18.40
2022-09-12T06:01:47.785Z,19.40
2022-09-12T06:04:14.957Z,20.00
2022-09-12T06:06:48.639Z,20.40
2022-09-12T06:09:16.763Z,20.80
2022-09-12T06:11:44.817Z,20.90
2022-09-12T06:14:14.556Z,21.20
2022-09-12T06:16:41.499Z,21.10
2022-09-12T06:19:18.663Z,20.80
2022-09-12T06:21:47.532Z,20.90
2022-09-12T06:24:14.390Z,21.30
2022-09-12T06:26:41.522Z,21.30
2022-09-12T06:29:09.303Z,21.40
2022-09-12T06:31:38.733Z,21.60
2022-09-12T06:34:09.602Z,21.70
2022-09-12T06:36:54.403Z,22.50
2022-09-12T06:39:22.683Z,23.30
2022-09-12T06:41:51.939Z,23.70
2022-09-12T06:44:21.829Z,23.50
2022-09-12T06:46:48.987Z,23.30
2022-09-12T06:49:15.872Z,23.30
2022-09-12T06:51:43.047Z,23.20
2022-09-12T06:54:16.818Z,23.50
2022-09-12T06:56:44.234Z,23.50
2022-09-12T06:59:11.007Z,23.50
2022-09-12T07:01:38.040Z,23.80
2022-09-12T07:04:05.178Z,23.90
2022-09-12T07:06:38.391Z,23.50
2022-09-12T07:09:08.244Z,23.80
2022-09-12T07:11:38.005Z,24.10
2022-09-12T07:14:07.681Z,23.20
2022-09-12T07:16:37.861Z,22.90
2022-09-12T07:19:07.214Z,22.80
2022-09-12T07:21:39.449Z,22.60
2022-09-12T07:24:08.664Z,22.20
2022-09-12T07:26:35.660Z,22.50
2022-09-12T07:31:49.620Z,23.40
2022-09-12T07:34:17.463Z,23.40
2022-09-12T07:36:44.200Z,23.60
2022-09-12T07:39:11.212Z,23.40
2022-09-12T07:41:38.011Z,23.60
2022-09-12T07:44:06.649Z,23.30
2022-09-12T07:46:33.533Z,23.80
2022-09-12T07:49:01.623Z,24.10
2022-09-12T07:51:30.488Z,23.90
2022-09-12T07:54:01.219Z,23.80
2022-09-12T07:56:32.038Z,23.60
2022-09-12T07:59:10.712Z,23.30
2022-09-12T08:01:50.582Z,23.60
2022-09-12T08:04:40.084Z,23.40
2022-09-12T08:07:55.887Z,23.50
2022-09-12T08:10:51.486Z,23.60
2022-09-12T08:13:55.225Z,23.90
2022-09-12T08:16:56.574Z,23.40
2022-09-12T08:19:48.502Z,23.50
2022-09-12T08:22:41.687Z,23.50
2022-09-12T08:25:52.779Z,23.20
2022-09-12T08:28:56.026Z,23.30
2022-09-12T08:31:57.043Z,23.10
2022-09-12T08:34:59.076Z,23.30
2022-09-12T08:38:03.534Z,23.30
2022-09-12T08:40:30.343Z,23.40
2022-09-12T08:44:01.980Z,23.40
2022-09-12T08:46:47.197Z,23.20
2022-09-12T08:49:24.035Z,23.30
2022-09-12T08:51:51.991Z,22.90
2022-09-12T08:54:26.856Z,22.90
2022-09-12T08:57:01.826Z,22.80
2022-09-12T08:59:38.942Z,22.90
2022-09-12T09:02:47.007Z,22.90
2022-09-12T09:06:11.382Z,23.20
2022-09-12T09:09:00.218Z,23.20
2022-09-12T09:11:54.594Z,23.20
2022-09-12T09:15:08.784Z,23.50
2022-09-12T09:17:47.960Z,23.20
2022-09-12T09:20:55.091Z,23.60
2022-09-12T09:23:40.481Z,23.60
2022-09-12T09:26:14.636Z,23.50
2022-09-12T09:28:52.995Z,23.80
2022-09-12T09:31:22.982Z,23.70
2022-09-12T09:33:53.995Z,23.50
2022-09-12T09:36:30.255Z,24.00
2022-09-12T09:39:27.275Z,24.00
2022-09-12T09:42:40.318Z,23.80
2022-09-12T09:45:20.959Z,23.80
2022-09-12T09:48:01.621Z,23.80
2022-09-12T09:50:29.229Z,24.30
2022-09-12T09:52:58.924Z,24.40
2022-09-12T09:55:40.499Z,24.50
2022-09-12T09:58:07.245Z,24.00
2022-09-12T10:00:39.130Z,24.10
2022-09-12T10:03:14.812Z,24.40
2022-09-12T10:06:08.158Z,24.50
2022-09-12T10:08:37.111Z,24.20
2022-09-12T10:11:28.300Z,24.60
2022-09-12T10:13:57.778Z,24.20
2022-09-12T10:16:28.887Z,24.70
2022-09-12T10:18:59.106Z,24.40
2022-09-12T10:21:31.811Z,24.70
2022-09-12T10:24:25.060Z,24.90
2022-09-12T10:27:06.311Z,25.20
2022-09-12T10:29:47.750Z,25.00
2022-09-12T10:32:50.979Z,25.10
2022-09-12T10:35:25.538Z,25.40
2022-09-12T10:38:07.067Z,25.60
2022-09-12T10:40:42.541Z,25.40
2022-09-12T10:43:55.896Z,25.80
2022-09-12T10:46:29.308Z,25.60
2022-09-12T10:49:22.523Z,25.00
2022-09-12T10:51:51.050Z,25.30
2022-09-12T10:54:22.321Z,25.80
2022-09-12T10:57:14.474Z,26.60
2022-09-12T11:00:17.950Z,27.00
2022-09-12T11:10:54.532Z,28.10
2022-09-12T11:14:17.799Z,28.30
2022-09-12T11:17:52.259Z,29.10
2022-09-12T11:24:28.793Z,28.70
2022-09-12T11:27:24.502Z,28.90
2022-09-12T11:30:14.984Z,28.50
2022-09-12T11:33:01.379Z,29.00
2022-09-12T11:35:31.670Z,29.20
2022-09-12T11:38:05.012Z,30.40
2022-09-12T11:40:50.742Z,30.60
2022-09-12T11:43:40.499Z,30.00
2022-09-12T11:46:38.229Z,28.50
2022-09-12T11:49:13.741Z,28.80
2022-09-12T11:51:54.169Z,29.20
2022-09-12T11:55:01.204Z,29.60
2022-09-12T11:57:41.581Z,28.10
2022-09-12T12:00:26.519Z,28.30
2022-09-12T12:03:09.510Z,29.30
2022-09-12T12:06:06.084Z,29.00
2022-09-12T12:08:40.912Z,28.10
2022-09-12T12:11:08.999Z,28.10
2022-09-12T12:13:45.985Z,28.30
2022-09-12T12:16:21.372Z,28.20
2022-09-12T12:18:55.895Z,28.50
2022-09-12T12:21:42.964Z,29.10
2022-09-12T12:24:09.585Z,28.90
2022-09-12T12:26:39.563Z,29.20
2022-09-12T12:29:18.008Z,29.60
2022-09-12T12:32:21.339Z,28.30
2022-09-12T12:34:48.522Z,27.70
2022-09-12T12:37:29.580Z,28.20
2022-09-12T12:40:10.195Z,28.90
2022-09-12T12:42:36.888Z,29.20
2022-09-12T12:45:09.347Z,28.80
2022-09-12T12:47:39.302Z,28.90
2022-09-12T12:50:20.558Z,30.00
2022-09-12T12:52:50.020Z,30.20
2022-09-12T12:55:38.965Z,30.10
2022-09-12T12:58:08.127Z,30.30
2022-09-12T13:00:39.913Z,29.90
2022-09-12T13:03:06.812Z,29.70
2022-09-12T13:05:47.886Z,30.20
2022-09-12T13:08:17.289Z,29.60
2022-09-12T13:11:28.396Z,30.30
2022-09-12T13:14:07.482Z,30.80
2022-09-12T13:16:40.411Z,30.40
2022-09-12T13:19:32.418Z,31.30
2022-09-12T13:22:07.765Z,31.50
2022-09-12T13:24:47.042Z,30.70
2022-09-12T13:27:23.180Z,30.80
2022-09-12T13:29:50.851Z,31.20
2022-09-12T13:32:18.893Z,31.20
2022-09-12T13:34:48.785Z,31.80
2022-09-12T13:37:37.581Z,32.30
2022-09-12T13:40:25.800Z,31.50
2022-09-12T13:43:15.563Z,30.40
2022-09-12T13:45:44.978Z,30.70
2022-09-12T13:48:17.579Z,31.10
2022-09-12T13:50:56.453Z,31.30
2022-09-12T13:53:34.859Z,31.30
2022-09-12T13:56:06.533Z,30.90
2022-09-12T13:58:36.965Z,30.60
2022-09-12T14:01:15.260Z,30.50
2022-09-12T14:04:14.235Z,30.90
2022-09-12T14:06:50.880Z,31.40
2022-09-12T14:09:28.735Z,31.40
2022-09-12T14:11:55.954Z,31.70
2022-09-12T14:14:29.281Z,31.30
2022-09-12T14:16:56.406Z,31.00
2022-09-12T14:19:25.890Z,31.20
2022-09-12T14:21:53.777Z,31.00
2022-09-12T14:24:23.258Z,31.00
2022-09-12T14:26:52.830Z,30.60
2022-09-12T14:29:21.440Z,30.60
2022-09-12T14:32:02.524Z,29.70
2022-09-12T14:34:30.856Z,29.30
2022-09-12T14:36:58.607Z,29.50
2022-09-12T14:39:30.846Z,30.10
2022-09-12T14:42:19.139Z,30.40
2022-09-12T14:45:01.791Z,30.50
2022-09-12T14:47:35.569Z,30.70
2022-09-12T14:50:02.721Z,30.20
2022-09-12T14:52:34.939Z,30.30
2022-09-12T14:55:27.382Z,31.00
2022-09-12T14:58:22.682Z,31.40
2022-09-12T15:00:58.411Z,31.50
2022-09-12T15:03:32.311Z,31.60
2022-09-12T15:06:00.485Z,31.60
2022-09-12T15:08:27.954Z,31.50
2022-09-12T15:10:55.627Z,31.70
2022-09-12T15:13:25.770Z,31.60
2022-09-12T15:15:54.043Z,31.60
2022-09-12T15:18:22.839Z,31.80
2022-09-12T15:20:52.891Z,32.20
2022-09-12T15:23:29.017Z,31.80
2022-09-12T15:25:56.241Z,31.60
2022-09-12T15:28:24.911Z,31.40
2022-09-12T15:30:54.766Z,31.40
2022-09-12T15:33:24.151Z,31.80
2022-09-12T15:35:52.378Z,32.00
2022-09-12T15:38:24.310Z,31.60
2022-09-12T15:40:53.974Z,31.10
2022-09-12T15:43:22.227Z,30.50
2022-09-12T15:45:51.626Z,29.90
2022-09-12T15:48:19.365Z,29.40
2022-09-12T15:50:46.545Z,29.10
2022-09-12T15:53:17.633Z,29.00
2022-09-12T15:55:45.727Z,29.30
2022-09-12T15:58:14.058Z,29.30
2022-09-12T16:00:41.240Z,29.40
2022-09-12T16:03:21.927Z,29.80
2022-09-12T16:05:49.903Z,30.70
2022-09-12T16:08:17.059Z,30.70
2022-09-12T16:10:44.501Z,31.10
2022-09-12T16:13:12.549Z,31.20
2022-09-12T16:15:40.039Z,31.00
2022-09-12T16:18:07.763Z,31.40
2022-09-12T16:20:35.153Z,31.30
2022-09-12T16:23:02.854Z,30.40
2022-09-12T16:25:29.998Z,29.90
2022-09-12T16:27:57.217Z,29.40
2022-09-12T16:30:24.457Z,29.10
2022-09-12T16:32:53.026Z,28.90
2022-09-12T16:35:20.153Z,29.10
2022-09-12T16:37:47.336Z,29.10
2022-09-12T16:40:17.732Z,28.80
2022-09-12T16:42:45.258Z,28.90
2022-09-12T16:45:13.120Z,29.00
2022-09-12T16:47:40.487Z,28.20
2022-09-12T16:50:08.221Z,27.70
2022-09-12T16:52:35.938Z,27.00
2022-09-12T16:55:03.109Z,26.40
2022-09-12T16:57:30.280Z,26.30
2022-09-12T16:59:57.489Z,26.20
2022-09-12T17:02:24.691Z,26.10
2022-09-12T17:04:52.611Z,25.80
2022-09-12T17:07:19.894Z,25.70
2022-09-12T17:09:48.041Z,25.40
2022-09-12T17:12:15.286Z,25.10
2022-09-12T17:14:42.403Z,25.20
2022-09-12T17:17:09.535Z,25.00
2022-09-12T17:19:36.658Z,24.70
2022-09-12T17:22:03.908Z,24.60
2022-09-12T17:24:31.295Z,24.40
2022-09-12T17:26:59.295Z,24.40
2022-09-12T17:29:26.501Z,24.20
2022-09-12T17:31:54.953Z,24.20
2022-09-12T17:34:23.311Z,24.00
2022-09-12T17:36:50.501Z,24.00
2022-09-12T17:39:17.727Z,23.80
2022-09-12T17:41:46.036Z,23.50
2022-09-12T17:44:14.969Z,23.40
2022-09-12T17:46:42.862Z,23.60
2022-09-12T17:49:15.466Z,23.40
2022-09-12T17:51:43.848Z,23.40
2022-09-12T17:54:15.953Z,23.20
2022-09-12T17:56:45.362Z,23.10
2022-09-12T17:59:16.408Z,23.30
2022-09-12T18:02:02.063Z,23.20
2022-09-12T18:04:29.762Z,22.90
2022-09-12T18:06:57.623Z,22.70
2022-09-12T18:09:25.119Z,22.70
2022-09-12T18:11:52.981Z,22.50
2022-09-12T18:14:20.692Z,22.50
2022-09-12T18:16:48.540Z,22.50
2022-09-12T18:19:16.088Z,22.60
2022-09-12T18:21:43.244Z,22.50
2022-09-12T18:24:10.903Z,22.60
2022-09-12T18:26:38.071Z,22.80
2022-09-12T18:29:05.191Z,22.80
2022-09-12T18:31:32.395Z,22.50
2022-09-12T18:34:00.255Z,22.50
2022-09-12T18:36:27.713Z,22.50
2022-09-12T18:38:55.161Z,22.30
2022-09-12T18:41:24.725Z,22.20
2022-09-12T18:43:59.308Z,21.90
2022-09-12T18:46:28.161Z,22.20
2022-09-12T18:48:57.885Z,22.00
2022-09-12T18:51:31.157Z,21.80
2022-09-12T18:54:01.103Z,22.00
2022-09-12T18:56:32.836Z,21.80
2022-09-12T18:59:01.145Z,21.70
2022-09-12T19:01:31.593Z,21.50
2022-09-12T19:04:00.813Z,21.50
2022-09-12T19:06:30.081Z,21.50
2022-09-12T19:08:58.652Z,21.40
2022-09-12T19:11:27.253Z,21.50
2022-09-12T19:13:56.215Z,21.40
2022-09-12T19:16:26.761Z,21.40
2022-09-12T19:18:56.239Z,21.50
2022-09-12T19:21:29.235Z,21.40
2022-09-12T19:23:59.632Z,21.30
2022-09-12T19:26:27.037Z,21.20
2022-09-12T19:28:55.162Z,21.50
2022-09-12T19:31:23.329Z,21.40
2022-09-12T19:33:52.260Z,21.20
2022-09-12T19:36:43.773Z,21.20
2022-09-12T19:39:09.152Z,21.30
2022-09-12T19:41:36.555Z,21.50
2022-09-12T19:44:04.838Z,22.00
2022-09-12T19:46:32.252Z,21.60
2022-09-12T19:48:59.499Z,21.70
2022-09-12T19:51:26.892Z,22.10
2022-09-12T19:53:54.098Z,22.30
2022-09-12T19:56:21.721Z,22.00
2022-09-12T19:58:55.719Z,22.10
2022-09-12T20:01:25.621Z,21.70
2022-09-12T20:03:53.761Z,21.70
2022-09-12T20:06:21.216Z,21.50
2022-09-12T20:08:48.403Z,21.60
2022-09-12T20:11:17.917Z,21.70
2022-09-12T20:13:45.367Z,21.90
2022-09-12T20:16:22.464Z,21.60
2022-09-12T20:18:54.558Z,21.40
2022-09-12T20:21:30.990Z,21.50
2022-09-12T20:24:02.814Z,21.40
2022-09-12T20:26:30.721Z,21.30
2022-09-12T20:28:57.853Z,21.40
2022-09-12T20:31:25.388Z,21.30
2022-09-12T20:33:52.774Z,21.30
2022-09-12T20:36:21.396Z,21.20
2022-09-12T20:38:58.349Z,21.00
2022-09-12T20:41:27.853Z,21.10
2022-09-12T20:43:56.347Z,21.20
2022-09-12T20:46:24.831Z,21.20
2022-09-12T20:48:52.457Z,21.30
2022-09-12T20:51:20.801Z,21.30
2022-09-12T20:53:48.382Z,21.40
2022-09-12T20:56:15.618Z,21.20
2022-09-12T20:58:44.347Z,21.20
2022-09-12T21:01:13.767Z,21.10
2022-09-12T21:03:42.026Z,21.10
2022-09-12T21:06:10.579Z,21.20
2022-09-12T21:08:38.338Z,21.20
2022-09-12T21:11:06.218Z,21.40
2022-09-12T21:13:33.471Z,21.30
2022-09-12T21:16:07.771Z,21.50
2022-09-12T21:18:35.816Z,21.70
2022-09-12T21:21:04.106Z,21.70
2022-09-12T21:23:32.109Z,22.10
2022-09-12T21:26:03.321Z,21.70
2022-09-12T21:28:30.951Z,22.00
2022-09-12T21:30:58.171Z,21.60
2022-09-12T21:33:25.740Z,21.40
2022-09-12T21:35:52.919Z,21.50
2022-09-12T21:38:20.769Z,21.50
2022-09-12T21:40:48.159Z,21.90
2022-09-12T21:43:15.633Z,22.20
2022-09-12T21:45:42.887Z,21.60
2022-09-12T21:48:10.036Z,21.70
2022-09-12T21:50:37.182Z,21.30
2022-09-12T21:53:04.390Z,21.20
2022-09-12T21:55:31.576Z,21.00
2022-09-12T21:57:58.729Z,21.00
2022-09-12T22:00:26.039Z,21.10
2022-09-12T22:02:53.725Z,21.50
2022-09-12T22:05:22.186Z,21.70
2022-09-12T22:07:49.360Z,21.90
2022-09-12T22:10:16.584Z,21.60
2022-09-12T22:12:46.118Z,21.50
2022-09-12T22:15:39.090Z,21.20
2022-09-12T22:18:01.363Z,21.00
2022-09-12T22:20:28.567Z,20.70
2022-09-12T22:23:14.102Z,20.50
2022-09-12T22:25:41.447Z,20.50
2022-09-12T22:28:08.599Z,20.40
2022-09-12T22:30:35.937Z,20.50
2022-09-12T22:33:03.087Z,20.50
2022-09-12T22:35:30.847Z,20.20
2022-09-12T22:37:58.039Z,20.30
2022-09-12T22:40:25.221Z,20.40
2022-09-12T22:42:53.271Z,20.40
2022-09-12T22:45:20.492Z,20.20
2022-09-12T22:47:47.638Z,20.20
2022-09-12T22:50:14.975Z,20.20
2022-09-12T22:52:42.163Z,20.30
2022-09-12T22:55:09.821Z,20.40
2022-09-12T22:57:37.699Z,20.30
2022-09-12T23:00:10.452Z,20.10
2022-09-12T23:02:38.062Z,20.10
2022-09-12T23:05:06.047Z,20.40
2022-09-12T23:07:33.443Z,20.80
2022-09-12T23:10:00.628Z,20.80
2022-09-12T23:12:27.793Z,20.50
2022-09-12T23:14:54.943Z,20.60
2022-09-12T23:17:22.093Z,20.50
2022-09-12T23:19:49.242Z,20.60
2022-09-12T23:22:16.400Z,20.40
2022-09-12T23:24:43.531Z,20.50
2022-09-12T23:27:10.699Z,20.40
2022-09-12T23:29:37.828Z,20.70
2022-09-12T23:32:05.229Z,20.80
2022-09-12T23:34:33.482Z,20.80
2022-09-12T23:37:00.610Z,20.50
2022-09-12T23:39:27.755Z,20.40
2022-09-12T23:41:55.490Z,20.50
2022-09-12T23:44:22.601Z,20.50
2022-09-12T23:46:49.740Z,20.50
2022-09-12T23:49:16.881Z,20.60
2022-09-12T23:51:44.675Z,20.50
2022-09-12T23:54:11.812Z,20.30
2022-09-12T23:56:38.971Z,20.40
2022-09-12T23:59:06.165Z,20.50
